createdAt,value
2023-05-17T00:00:27.262Z,57.33
2023-05-17T00:02:55.109Z,57.24
2023-05-17T00:05:23.510Z,57.50
2023-05-17T00:07:51.590Z,57.45
2023-05-17T00:10:19.572Z,57.60
2023-05-17T00:12:48.016Z,57.41
2023-05-17T00:15:15.851Z,57.52
2023-05-17T00:17:45.075Z,57.36
2023-05-17T00:20:14.351Z,57.13
2023-05-17T00:22:43.291Z,58.14
2023-05-17T00:25:11.122Z,58.06
2023-05-17T00:27:39.581Z,58.18
2023-05-17T00:30:09.628Z,58.03
2023-05-17T00:32:37.511Z,57.65
2023-05-17T00:35:08.171Z,57.98
2023-05-17T00:37:36.043Z,58.26
2023-05-17T00:40:04.305Z,57.99
2023-05-17T00:42:32.464Z,58.29
2023-05-17T00:45:00.292Z,58.09
2023-05-17T00:47:28.244Z,58.03
2023-05-17T00:49:56.653Z,57.90
2023-05-17T00:52:25.925Z,57.88
2023-05-17T00:54:54.010Z,58.00
2023-05-17T00:57:22.519Z,58.15
2023-05-17T00:59:50.685Z,57.96
2023-05-17T01:02:18.981Z,58.09
2023-05-17T01:07:40.384Z,58.79
2023-05-17T01:10:09.780Z,58.14
2023-05-17T01:12:48.509Z,58.78
2023-05-17T01:15:23.295Z,58.92
2023-05-17T01:18:00.491Z,58.81
2023-05-17T01:20:30.617Z,58.83
2023-05-17T01:23:16.293Z,59.03
2023-05-17T01:25:54.115Z,58.93
2023-05-17T01:28:26.364Z,58.58
2023-05-17T01:30:57.091Z,59.38
2023-05-17T01:33:25.527Z,59.45
2023-05-17T01:35:54.025Z,59.06
2023-05-17T01:38:21.915Z,58.98
2023-05-17T01:41:00.246Z,59.34
2023-05-17T01:43:36.806Z,59.63
2023-05-17T01:46:14.552Z,59.29
2023-05-17T01:48:48.951Z,59.07
2023-05-17T01:51:21.489Z,58.35
2023-05-17T01:53:52.882Z,58.28
2023-05-17T01:56:23.555Z,57.84
2023-05-17T01:58:53.999Z,57.70
2023-05-17T02:01:24.478Z,57.88
2023-05-17T02:03:52.400Z,57.63
2023-05-17T02:06:20.232Z,57.57
2023-05-17T02:08:48.892Z,57.30
2023-05-17T02:11:16.742Z,56.65
2023-05-17T02:13:44.555Z,57.10
2023-05-17T02:16:14.181Z,56.20
2023-05-17T02:18:41.840Z,56.70
2023-05-17T02:21:09.736Z,56.30
2023-05-17T02:23:38.589Z,56.04
2023-05-17T02:26:06.445Z,56.56
2023-05-17T02:28:34.296Z,56.43
2023-05-17T02:31:02.693Z,56.52
2023-05-17T02:33:31.995Z,56.44
2023-05-17T02:35:59.865Z,56.36
2023-05-17T02:38:28.246Z,56.28
2023-05-17T02:40:56.076Z,55.87
2023-05-17T02:43:24.189Z,55.59
2023-05-17T02:45:52.522Z,55.88
2023-05-17T02:48:20.424Z,55.83
2023-05-17T02:50:49.631Z,55.56
2023-05-17T02:53:17.892Z,55.97
2023-05-17T02:55:45.725Z,55.40
2023-05-17T02:58:13.535Z,55.30
2023-05-17T03:00:41.902Z,55.34
2023-05-17T03:03:09.798Z,55.69
2023-05-17T03:05:37.695Z,55.17
2023-05-17T03:08:08.534Z,55.84
2023-05-17T03:10:36.435Z,55.24
2023-05-17T03:13:04.253Z,55.53
2023-05-17T03:15:32.701Z,55.38
2023-05-17T03:18:00.693Z,55.35
2023-05-17T03:20:28.774Z,55.53
2023-05-17T03:22:57.034Z,55.32
2023-05-17T03:25:26.263Z,55.19
2023-05-17T03:27:54.155Z,55.16
2023-05-17T03:30:22.692Z,55.30
2023-05-17T03:32:50.687Z,54.82
2023-05-17T03:35:18.557Z,54.93
2023-05-17T03:37:46.893Z,54.79
2023-05-17T03:40:14.846Z,55.33
2023-05-17T03:42:44.045Z,55.48
2023-05-17T03:45:13.460Z,55.12
2023-05-17T03:47:43.139Z,55.34
2023-05-17T03:50:11.140Z,55.25
2023-05-17T03:52:39.688Z,55.01
2023-05-17T03:55:07.815Z,55.19
2023-05-17T03:57:35.654Z,55.22
2023-05-17T04:00:09.274Z,55.50
2023-05-17T04:02:37.217Z,55.50
2023-05-17T04:05:05.617Z,55.48
2023-05-17T04:07:34.098Z,55.31
2023-05-17T04:10:02.960Z,55.46
2023-05-17T04:12:30.798Z,55.75
2023-05-17T04:14:59.116Z,55.37
2023-05-17T04:17:29.811Z,55.44
2023-05-17T04:19:57.795Z,55.54
2023-05-17T04:22:26.135Z,55.82
2023-05-17T04:24:53.944Z,56.08
2023-05-17T04:27:22.648Z,56.21
2023-05-17T04:29:50.533Z,56.05
2023-05-17T04:32:18.959Z,55.98
2023-05-17T04:34:48.157Z,56.18
2023-05-17T04:37:16.674Z,56.48
2023-05-17T04:39:44.484Z,56.63
2023-05-17T04:42:12.530Z,56.91
2023-05-17T04:44:40.958Z,56.68
2023-05-17T04:47:09.221Z,56.93
2023-05-17T04:49:37.346Z,56.79
2023-05-17T04:52:07.739Z,57.16
2023-05-17T04:54:35.601Z,57.66
2023-05-17T04:57:05.035Z,57.41
2023-05-17T04:59:33.242Z,57.80
2023-05-17T05:02:01.090Z,58.08
2023-05-17T05:04:28.927Z,58.36
2023-05-17T05:06:57.271Z,58.07
2023-05-17T05:09:26.458Z,58.84
2023-05-17T05:11:54.381Z,58.94
2023-05-17T05:14:22.302Z,59.27
2023-05-17T05:16:50.130Z,59.41
2023-05-17T05:19:18.034Z,59.33
2023-05-17T05:21:46.590Z,59.61
2023-05-17T05:24:14.497Z,59.63
2023-05-17T05:26:44.776Z,59.57
2023-05-17T05:29:12.813Z,60.03
2023-05-17T05:31:40.656Z,60.35
2023-05-17T05:34:08.740Z,60.34
2023-05-17T05:36:36.659Z,60.03
2023-05-17T05:39:04.888Z,60.24
2023-05-17T05:41:33.069Z,59.88
2023-05-17T05:44:02.361Z,60.32
2023-05-17T05:46:30.183Z,60.75
2023-05-17T05:48:58.164Z,60.75
2023-05-17T05:51:26.089Z,60.80
2023-05-17T05:53:53.879Z,61.09
2023-05-17T05:56:21.648Z,61.60
2023-05-17T05:58:49.736Z,61.83
2023-05-17T06:01:18.918Z,61.30
2023-05-17T06:03:46.771Z,61.72
2023-05-17T06:06:16.827Z,61.36
2023-05-17T06:08:45.738Z,61.43
2023-05-17T06:11:13.535Z,61.50
2023-05-17T06:13:41.501Z,61.47
2023-05-17T06:16:09.304Z,62.17
2023-05-17T06:18:38.557Z,61.97
2023-05-17T06:21:06.557Z,61.24
2023-05-17T06:23:34.456Z,61.86
2023-05-17T06:26:02.527Z,61.41
2023-05-17T06:28:30.497Z,61.62
2023-05-17T06:30:58.512Z,61.59
2023-05-17T06:33:26.453Z,61.76
2023-05-17T06:35:57.788Z,61.58
2023-05-17T06:38:27.681Z,61.69
2023-05-17T06:40:57.495Z,61.48
2023-05-17T06:43:25.652Z,61.47
2023-05-17T06:45:53.726Z,61.52
2023-05-17T06:48:21.974Z,61.52
2023-05-17T06:50:49.946Z,61.78
2023-05-17T06:53:19.375Z,62.09
2023-05-17T06:55:47.226Z,61.66
2023-05-17T06:58:15.084Z,61.45
2023-05-17T07:00:43.207Z,61.40
2023-05-17T07:03:11.548Z,60.76
2023-05-17T07:05:39.565Z,61.05
2023-05-17T07:08:07.433Z,60.62
2023-05-17T07:10:36.740Z,60.33
2023-05-17T07:13:04.569Z,60.59
2023-05-17T07:15:32.551Z,59.83
2023-05-17T07:18:00.756Z,59.89
2023-05-17T07:20:28.809Z,58.64
2023-05-17T07:22:57.152Z,58.91
2023-05-17T07:25:25.186Z,58.52
2023-05-17T07:27:54.746Z,58.74
2023-05-17T07:30:25.396Z,58.19
2023-05-17T07:32:55.251Z,57.83
2023-05-17T07:35:23.479Z,57.27
2023-05-17T07:37:51.419Z,57.09
2023-05-17T07:40:19.555Z,57.46
2023-05-17T07:42:47.420Z,57.45
2023-05-17T07:45:16.961Z,56.91
2023-05-17T07:47:44.927Z,56.09
2023-05-17T07:50:13.481Z,56.43
2023-05-17T07:52:41.332Z,56.32
2023-05-17T07:55:10.148Z,56.03
2023-05-17T07:57:38.049Z,56.01
2023-05-17T08:00:11.427Z,56.29
2023-05-17T08:02:41.252Z,56.02
2023-05-17T08:05:09.880Z,55.56
2023-05-17T08:07:37.761Z,54.92
2023-05-17T08:10:08.776Z,55.01
2023-05-17T08:12:36.670Z,54.04
2023-05-17T08:15:04.873Z,53.32
2023-05-17T08:17:32.829Z,54.36
2023-05-17T08:20:02.114Z,54.39
2023-05-17T08:22:30.010Z,54.55
2023-05-17T08:24:58.067Z,54.72
2023-05-17T08:27:27.078Z,53.76
2023-05-17T08:29:57.692Z,54.30
2023-05-17T08:32:26.128Z,53.91
2023-05-17T08:34:54.619Z,52.71
2023-05-17T08:37:24.467Z,52.00
2023-05-17T08:39:52.499Z,51.42
2023-05-17T08:42:25.588Z,51.55
2023-05-17T08:44:54.893Z,51.64
2023-05-17T08:47:29.969Z,51.34
2023-05-17T08:50:00.430Z,51.13
2023-05-17T08:52:32.787Z,50.76
2023-05-17T08:55:06.066Z,50.76
2023-05-17T08:57:36.444Z,51.38
2023-05-17T09:00:12.864Z,51.43
2023-05-17T09:02:41.216Z,51.59
2023-05-17T09:05:11.074Z,50.41
2023-05-17T09:07:40.793Z,50.02
2023-05-17T09:10:09.051Z,49.58
2023-05-17T09:12:37.221Z,48.65
2023-05-17T09:15:27.239Z,47.69
2023-05-17T09:17:55.746Z,48.80
2023-05-17T09:20:25.295Z,48.10
2023-05-17T09:22:54.533Z,48.52
2023-05-17T09:25:24.812Z,48.08
2023-05-17T09:27:53.769Z,47.87
2023-05-17T09:30:28.793Z,45.65
2023-05-17T09:32:57.783Z,46.61
2023-05-17T09:35:30.337Z,47.97
2023-05-17T09:38:07.200Z,47.42
2023-05-17T09:40:35.410Z,47.08
2023-05-17T09:43:03.292Z,47.16
2023-05-17T09:45:33.020Z,46.72
2023-05-17T09:48:11.911Z,47.79
2023-05-17T09:50:45.455Z,47.42
2023-05-17T09:53:31.760Z,47.01
2023-05-17T09:56:01.531Z,45.71
2023-05-17T09:58:33.009Z,45.13
2023-05-17T10:01:03.703Z,45.57
2023-05-17T10:03:33.489Z,44.95
2023-05-17T10:06:03.865Z,45.10
2023-05-17T10:08:33.932Z,42.41
2023-05-17T10:11:06.675Z,41.84
2023-05-17T10:13:38.775Z,41.90
2023-05-17T10:16:07.307Z,41.24
2023-05-17T10:18:35.993Z,41.92
2023-05-17T10:21:04.808Z,40.61
2023-05-17T10:23:34.669Z,40.31
2023-05-17T10:26:03.297Z,41.17
2023-05-17T10:28:32.217Z,41.94
2023-05-17T10:31:00.921Z,40.84
2023-05-17T10:33:29.148Z,40.61
2023-05-17T10:35:57.609Z,40.34
2023-05-17T10:38:31.945Z,39.61
2023-05-17T10:41:05.482Z,40.68
2023-05-17T10:43:34.956Z,40.22
2023-05-17T10:46:04.461Z,41.10
2023-05-17T10:48:32.216Z,40.31
2023-05-17T10:51:07.863Z,40.61
2023-05-17T10:53:55.884Z,40.49
2023-05-17T10:56:25.544Z,38.81
2023-05-17T10:59:08.909Z,40.09
2023-05-17T11:02:00.037Z,40.76
2023-05-17T11:04:33.836Z,40.22
2023-05-17T11:07:32.159Z,39.67
2023-05-17T11:10:12.591Z,39.60
2023-05-17T11:12:44.634Z,38.94
2023-05-17T11:15:15.323Z,39.30
2023-05-17T11:17:51.607Z,38.89
2023-05-17T11:20:36.838Z,39.68
2023-05-17T11:23:06.870Z,39.41
2023-05-17T11:25:36.349Z,39.02
2023-05-17T11:28:20.012Z,38.12
2023-05-17T11:30:51.860Z,38.52
2023-05-17T11:33:32.412Z,37.49
2023-05-17T11:36:06.531Z,38.95
2023-05-17T11:38:34.695Z,38.27
2023-05-17T11:43:52.301Z,38.45
2023-05-17T11:46:21.731Z,38.27
2023-05-17T11:48:51.949Z,38.49
2023-05-17T11:51:23.819Z,37.23
2023-05-17T11:53:55.661Z,36.71
2023-05-17T11:56:35.521Z,37.02
2023-05-17T11:59:12.185Z,36.93
2023-05-17T12:01:44.400Z,37.71
2023-05-17T12:04:12.317Z,38.11
2023-05-17T12:06:40.808Z,38.22
2023-05-17T12:09:11.097Z,36.70
2023-05-17T12:11:39.557Z,38.08
2023-05-17T12:14:07.812Z,36.47
2023-05-17T12:16:38.003Z,36.31
2023-05-17T12:19:06.049Z,37.82
2023-05-17T12:21:34.747Z,36.71
2023-05-17T12:24:02.709Z,37.29
2023-05-17T12:26:30.473Z,36.58
2023-05-17T12:28:59.768Z,35.01
2023-05-17T12:31:30.971Z,35.00
2023-05-17T12:34:02.429Z,34.38
2023-05-17T12:36:31.880Z,34.84
2023-05-17T12:38:59.915Z,34.05
2023-05-17T12:41:28.458Z,34.57
2023-05-17T12:44:06.338Z,35.04
2023-05-17T12:46:42.256Z,34.90
2023-05-17T12:49:12.335Z,34.04
2023-05-17T12:51:44.221Z,34.30
2023-05-17T12:54:13.075Z,35.48
2023-05-17T12:56:44.083Z,35.03
2023-05-17T12:59:14.086Z,35.23
2023-05-17T13:01:44.242Z,34.52
2023-05-17T13:04:14.333Z,34.58
2023-05-17T13:06:46.954Z,34.19
2023-05-17T13:09:15.758Z,34.49
2023-05-17T13:11:43.625Z,34.15
2023-05-17T13:14:12.626Z,34.26
2023-05-17T13:16:41.467Z,34.92
2023-05-17T13:19:16.888Z,34.81
2023-05-17T13:21:45.080Z,34.44
2023-05-17T13:24:12.934Z,34.02
2023-05-17T13:26:40.750Z,34.20
2023-05-17T13:29:08.875Z,33.63
2023-05-17T13:31:36.699Z,34.23
2023-05-17T13:34:04.630Z,34.25
2023-05-17T13:36:34.022Z,34.70
2023-05-17T13:39:02.354Z,34.12
2023-05-17T13:41:30.368Z,34.91
2023-05-17T13:43:58.559Z,34.02
2023-05-17T13:46:26.419Z,35.07
2023-05-17T13:48:54.488Z,35.01
2023-05-17T13:51:22.498Z,34.53
2023-05-17T13:53:51.773Z,34.74
2023-05-17T13:56:19.674Z,34.22
2023-05-17T13:58:48.189Z,34.50
2023-05-17T14:01:16.139Z,34.86
2023-05-17T14:03:44.006Z,34.50
2023-05-17T14:06:12.097Z,34.60
2023-05-17T14:08:40.510Z,34.40
2023-05-17T14:11:09.736Z,34.00
2023-05-17T14:13:37.670Z,34.16
2023-05-17T14:16:06.195Z,34.19
2023-05-17T14:18:34.140Z,33.75
2023-05-17T14:21:03.626Z,34.50
2023-05-17T14:23:31.464Z,33.52
2023-05-17T14:25:59.284Z,34.14
2023-05-17T14:28:28.702Z,34.63
2023-05-17T14:30:56.523Z,34.93
2023-05-17T14:33:24.477Z,35.54
2023-05-17T14:35:52.439Z,34.40
2023-05-17T14:38:22.339Z,34.90
2023-05-17T14:40:50.228Z,33.82
2023-05-17T14:43:19.617Z,34.43
2023-05-17T14:45:48.899Z,34.42
2023-05-17T14:48:16.816Z,34.64
2023-05-17T14:50:44.896Z,34.76
2023-05-17T14:53:13.127Z,35.35
2023-05-17T14:55:41.872Z,35.20
2023-05-17T14:58:11.697Z,35.03
2023-05-17T15:00:41.591Z,34.68
2023-05-17T15:03:10.951Z,34.70
2023-05-17T15:05:39.018Z,34.62
2023-05-17T15:08:07.186Z,35.07
2023-05-17T15:10:35.320Z,34.84
2023-05-17T15:13:03.186Z,34.83
2023-05-17T15:15:31.349Z,34.87
2023-05-17T15:18:00.389Z,34.41
2023-05-17T15:20:30.151Z,34.42
2023-05-17T15:22:58.049Z,34.27
2023-05-17T15:25:25.885Z,34.51
2023-05-17T15:27:53.699Z,34.65
2023-05-17T15:30:27.005Z,33.89
2023-05-17T15:32:54.973Z,33.69
2023-05-17T15:35:23.135Z,33.70
2023-05-17T15:37:53.645Z,33.77
2023-05-17T15:40:22.534Z,34.35
2023-05-17T15:42:52.177Z,34.21
2023-05-17T15:45:21.561Z,34.18
2023-05-17T15:47:50.246Z,34.21
2023-05-17T15:50:18.253Z,34.59
2023-05-17T15:52:47.347Z,34.54
2023-05-17T15:55:17.018Z,34.96
2023-05-17T15:57:44.634Z,35.37
2023-05-17T16:00:13.589Z,35.41
2023-05-17T16:02:41.485Z,35.54
2023-05-17T16:05:10.182Z,35.45
2023-05-17T16:07:38.196Z,35.39
2023-05-17T16:10:06.795Z,35.50
2023-05-17T16:12:36.721Z,35.77
2023-05-17T16:15:04.844Z,35.82
2023-05-17T16:17:32.719Z,36.39
2023-05-17T16:20:01.019Z,36.10
2023-05-17T16:22:29.071Z,35.81
2023-05-17T16:24:57.068Z,35.64
2023-05-17T16:27:24.946Z,35.82
2023-05-17T16:29:54.149Z,35.30
2023-05-17T16:32:22.377Z,34.69
2023-05-17T16:34:50.215Z,35.06
2023-05-17T16:37:18.146Z,35.02
2023-05-17T16:39:45.971Z,35.22
2023-05-17T16:42:15.076Z,35.42
2023-05-17T16:44:42.924Z,35.47
2023-05-17T16:47:12.538Z,35.68
2023-05-17T16:49:41.174Z,35.58
2023-05-17T16:52:09.265Z,35.21
2023-05-17T16:54:38.651Z,35.50
2023-05-17T16:57:08.500Z,35.64
2023-05-17T16:59:36.460Z,35.81
2023-05-17T17:02:04.881Z,36.03
2023-05-17T17:04:34.097Z,35.96
2023-05-17T17:07:02.438Z,36.30
2023-05-17T17:09:30.316Z,36.34
2023-05-17T17:11:58.146Z,35.57
2023-05-17T17:14:26.087Z,35.83
2023-05-17T17:16:54.482Z,36.32
2023-05-17T17:19:22.744Z,36.15
2023-05-17T17:21:52.061Z,36.70
2023-05-17T17:24:20.282Z,36.95
2023-05-17T17:26:50.026Z,37.33
2023-05-17T17:29:17.861Z,37.16
2023-05-17T17:31:46.058Z,36.86
2023-05-17T17:34:13.903Z,37.06
2023-05-17T17:36:41.703Z,36.98
2023-05-17T17:39:14.622Z,37.08
2023-05-17T17:41:42.420Z,37.02
2023-05-17T17:44:10.441Z,37.22
2023-05-17T17:46:38.729Z,37.12
2023-05-17T17:49:06.568Z,36.84
2023-05-17T17:51:34.409Z,37.34
2023-05-17T17:54:04.199Z,37.13
2023-05-17T17:56:33.382Z,37.28
2023-05-17T17:59:01.213Z,37.70
2023-05-17T18:01:31.506Z,37.56
2023-05-17T18:04:00.228Z,37.98
2023-05-17T18:06:28.031Z,37.97
2023-05-17T18:08:57.857Z,37.83
2023-05-17T18:11:26.107Z,38.19
2023-05-17T18:13:56.614Z,38.16
2023-05-17T18:16:24.992Z,38.04
2023-05-17T18:18:52.836Z,38.56
2023-05-17T18:21:21.535Z,38.60
2023-05-17T18:23:49.378Z,38.66
2023-05-17T18:26:17.226Z,38.16
2023-05-17T18:28:45.078Z,38.56
2023-05-17T18:31:15.312Z,38.83
2023-05-17T18:33:43.110Z,38.76
2023-05-17T18:36:11.037Z,38.81
2023-05-17T18:38:39.301Z,38.97
2023-05-17T18:41:07.350Z,39.00
2023-05-17T18:43:35.212Z,38.85
2023-05-17T18:46:03.650Z,39.18
2023-05-17T18:48:35.994Z,39.29
2023-05-17T18:51:04.306Z,39.28
2023-05-17T18:53:32.098Z,39.13
2023-05-17T18:56:01.553Z,39.28
2023-05-17T18:58:29.673Z,39.25
2023-05-17T19:00:58.021Z,39.19
2023-05-17T19:03:26.003Z,39.42
2023-05-17T19:05:55.766Z,39.52
2023-05-17T19:08:23.610Z,39.74
2023-05-17T19:10:51.524Z,39.43
2023-05-17T19:13:20.037Z,39.60
2023-05-17T19:15:48.425Z,39.79
2023-05-17T19:18:16.434Z,40.02
2023-05-17T19:20:44.863Z,40.03
2023-05-17T19:23:14.122Z,40.20
2023-05-17T19:25:41.941Z,40.19
2023-05-17T19:28:10.696Z,40.14
2023-05-17T19:30:38.742Z,40.34
2023-05-17T19:33:06.765Z,40.28
2023-05-17T19:35:37.706Z,40.55
2023-05-17T19:38:05.559Z,40.81
2023-05-17T19:40:35.389Z,40.85
2023-05-17T19:43:04.118Z,41.01
2023-05-17T19:45:32.062Z,40.89
2023-05-17T19:48:00.261Z,40.99
2023-05-17T19:50:28.874Z,41.18
2023-05-17T19:52:56.882Z,41.17
2023-05-17T19:55:26.532Z,41.62
2023-05-17T19:57:56.165Z,41.26
2023-05-17T20:00:24.307Z,41.23
2023-05-17T20:02:52.327Z,41.22
2023-05-17T20:05:20.949Z,41.23
2023-05-17T20:07:48.855Z,41.57
2023-05-17T20:10:16.719Z,41.39
2023-05-17T20:12:45.149Z,42.30
2023-05-17T20:15:14.531Z,41.94
2023-05-17T20:17:42.502Z,41.58
2023-05-17T20:20:10.845Z,42.01
2023-05-17T20:22:41.082Z,42.05
2023-05-17T20:25:08.945Z,42.02
2023-05-17T20:27:37.124Z,41.98
2023-05-17T20:30:06.216Z,41.95
2023-05-17T20:32:35.772Z,42.88
2023-05-17T20:35:03.680Z,42.24
2023-05-17T20:37:31.538Z,42.56
2023-05-17T20:40:00.059Z,42.38
2023-05-17T20:42:29.045Z,42.02
2023-05-17T20:44:57.826Z,42.55
2023-05-17T20:47:26.404Z,42.64
2023-05-17T20:49:56.414Z,42.66
2023-05-17T20:52:38.201Z,42.87
2023-05-17T20:55:10.010Z,43.16
2023-05-17T20:57:37.904Z,42.94
2023-05-17T21:00:08.302Z,43.18
2023-05-17T21:02:36.769Z,43.79
2023-05-17T21:05:06.335Z,43.80
2023-05-17T21:07:34.943Z,44.19
2023-05-17T21:10:03.123Z,44.02
2023-05-17T21:12:31.166Z,44.40
2023-05-17T21:15:15.190Z,44.46
2023-05-17T21:17:44.848Z,44.53
2023-05-17T21:20:15.593Z,44.90
2023-05-17T21:22:44.293Z,44.76
2023-05-17T21:25:12.917Z,44.59
2023-05-17T21:27:40.973Z,44.02
2023-05-17T21:30:09.817Z,44.85
2023-05-17T21:32:38.388Z,45.53
2023-05-17T21:35:07.289Z,44.71
2023-05-17T21:37:39.189Z,44.76
2023-05-17T21:40:08.777Z,45.29
2023-05-17T21:42:36.913Z,45.38
2023-05-17T21:45:06.145Z,45.56
2023-05-17T21:47:35.852Z,45.03
2023-05-17T21:50:04.165Z,45.15
2023-05-17T21:52:32.580Z,45.44
2023-05-17T21:55:01.853Z,45.83
2023-05-17T21:57:30.170Z,45.80
2023-05-17T21:59:58.608Z,46.51
2023-05-17T22:02:26.805Z,46.50
2023-05-17T22:04:54.990Z,46.02
2023-05-17T22:07:23.522Z,46.10
2023-05-17T22:09:51.500Z,46.74
2023-05-17T22:12:25.850Z,46.55
2023-05-17T22:14:54.414Z,46.10
2023-05-17T22:17:29.550Z,46.24
2023-05-17T22:20:03.020Z,46.85
2023-05-17T22:22:33.309Z,46.62
2023-05-17T22:25:01.586Z,46.48
2023-05-17T22:27:30.927Z,46.47
2023-05-17T22:29:59.418Z,46.82
2023-05-17T22:32:27.480Z,46.71
2023-05-17T22:34:56.243Z,47.26
2023-05-17T22:37:24.880Z,46.59
2023-05-17T22:39:52.788Z,46.71
2023-05-17T22:42:21.045Z,47.45
2023-05-17T22:44:50.830Z,46.96
2023-05-17T22:47:22.666Z,47.36
2023-05-17T22:49:53.058Z,47.29
2023-05-17T22:52:21.808Z,47.24
2023-05-17T22:54:49.769Z,47.19
2023-05-17T22:57:17.853Z,47.34
2023-05-17T22:59:45.813Z,46.99
2023-05-17T23:02:15.017Z,47.60
2023-05-17T23:04:46.311Z,47.49
2023-05-17T23:07:15.059Z,47.68
2023-05-17T23:09:42.876Z,47.44
2023-05-17T23:12:14.618Z,47.76
2023-05-17T23:14:42.478Z,47.72
2023-05-17T23:17:10.479Z,47.64
2023-05-17T23:19:41.323Z,48.30
2023-05-17T23:22:10.668Z,48.42
2023-05-17T23:24:38.800Z,48.30
2023-05-17T23:27:10.495Z,48.48
2023-05-17T23:29:41.352Z,47.95
2023-05-17T23:32:09.372Z,48.25
2023-05-17T23:34:37.809Z,48.64
2023-05-17T23:37:07.013Z,48.98
2023-05-17T23:39:35.097Z,48.41
2023-05-17T23:42:03.221Z,48.85
2023-05-17T23:44:33.374Z,48.14
2023-05-17T23:47:01.445Z,48.60
2023-05-17T23:49:29.810Z,48.83
2023-05-17T23:51:57.934Z,48.57
2023-05-17T23:54:28.387Z,48.37
2023-05-17T23:56:57.569Z,48.49
2023-05-17T23:59:25.739Z,48.47
